Time;durP1;ratioP1;P1;durP2;ratioP2;P2;SDS_P1;SDS_P2;PMS_P1;PMS_P2;Temp;Humidity;BMP_temperature;BMP_pressure;BME280_temperature;BME280_humidity;BME280_pressure;Samples;Min_cycle;Max_cycle;Signal;HPM_P1;HPM_P2
2021/03/30 00:01:33;;;;;;;1.50;1.40;;;;;;;13.58;38.77;101857.78;5071686;28;20217;-72
2021/03/30 00:03:59;;;;;;;1.33;1.23;;;;;;;13.46;38.14;101869.22;5071203;28;20171;-72
2021/03/30 00:06:24;;;;;;;2.20;1.53;;;;;;;13.25;39.44;101867.84;5071132;28;20206;-71
2021/03/30 00:08:49;;;;;;;1.13;1.13;;;;;;;13.18;38.97;101868.22;5071225;28;20174;-72
2021/03/30 00:11:15;;;;;;;2.13;1.90;;;;;;;13.11;40.28;101864.97;5071555;28;20178;-72
2021/03/30 00:13:40;;;;;;;2.27;2.13;;;;;;;12.97;39.70;101862.13;5071307;28;20209;-71
2021/03/30 00:16:06;;;;;;;2.40;1.53;;;;;;;12.91;39.65;101871.53;5071028;28;20178;-72
2021/03/30 00:18:31;;;;;;;1.10;1.07;;;;;;;12.81;41.18;101868.88;5071214;28;20202;-72
2021/03/30 00:20:57;;;;;;;1.93;1.83;;;;;;;12.67;41.59;101870.69;5070783;28;20178;-71
2021/03/30 00:23:23;;;;;;;1.60;1.47;;;;;;;12.67;41.72;101873.44;5070966;28;20167;-72
2021/03/30 00:25:48;;;;;;;3.13;1.20;;;;;;;12.34;42.72;101875.94;5070937;28;20626;-72
2021/03/30 00:28:13;;;;;;;1.40;1.10;;;;;;;11.93;44.28;101871.91;5070502;28;20198;-71
2021/03/30 00:30:39;;;;;;;1.73;1.50;;;;;;;11.57;45.67;101875.69;5070300;28;20231;-71
2021/03/30 00:33:04;;;;;;;1.83;1.73;;;;;;;11.34;46.72;101881.81;5070764;28;20186;-71
2021/03/30 00:35:30;;;;;;;1.53;1.43;;;;;;;10.94;49.49;101874.59;5072635;28;20217;-72
2021/03/30 00:37:55;;;;;;;1.20;1.10;;;;;;;10.58;50.43;101874.69;5074536;28;20179;-71
2021/03/30 00:40:21;;;;;;;4.67;0.80;;;;;;;10.17;52.33;101873.88;5074381;28;20162;-72
2021/03/30 00:42:46;;;;;;;1.27;1.17;;;;;;;9.86;53.12;101880.41;5074448;28;20395;-71
2021/03/30 00:45:13;;;;;;;1.23;1.13;;;;;;;9.86;51.45;101877.69;5074466;28;20402;-71
2021/03/30 00:47:43;;;;;;;1.60;1.50;;;;;;;9.93;51.55;101875.50;5074399;28;20190;-71
2021/03/30 00:50:13;;;;;;;43.20;2.93;;;;;;;10.36;49.73;101874.16;5074530;28;20166;-72
2021/03/30 00:52:41;;;;;;;2.00;1.27;;;;;;;10.71;49.18;101870.56;5074401;28;20159;-72
2021/03/30 00:55:07;;;;;;;1.13;1.03;;;;;;;10.95;46.25;101866.09;5074280;28;20177;-71
2021/03/30 00:57:35;;;;;;;0.97;0.97;;;;;;;11.50;44.37;101872.41;5073455;28;20174;-71
2021/03/30 01:00:02;;;;;;;1.47;1.23;;;;;;;11.95;43.06;101872.44;5074091;28;20171;-72
2021/03/30 01:02:28;;;;;;;0.97;0.97;;;;;;;12.15;42.40;101875.00;5074208;28;20177;-72
2021/03/30 01:04:53;;;;;;;2.33;1.73;;;;;;;12.34;42.08;101875.94;5073546;28;20547;-72
2021/03/30 01:07:18;;;;;;;1.77;1.67;;;;;;;12.49;41.82;101867.56;5074036;28;20257;-72
2021/03/30 01:09:55;;;;;;;1.47;1.37;;;;;;;12.53;40.05;101878.78;5074133;28;20178;-71
2021/03/30 01:12:41;;;;;;;4.57;1.77;;;;;;;12.69;40.98;101872.03;5073832;28;20216;-71
2021/03/30 01:15:16;;;;;;;4.37;1.60;;;;;;;12.59;41.49;101874.06;5073613;28;20165;-71
2021/03/30 01:17:51;;;;;;;2.67;1.60;;;;;;;12.65;40.73;101873.72;5073488;28;20173;-71
2021/03/30 01:20:54;;;;;;;1.20;1.10;;;;;;;12.64;41.33;101874.84;5073503;28;20192;-72
2021/03/30 01:24:16;;;;;;;0.93;0.67;;;;;;;12.74;40.53;101876.66;5072336;28;20682;-72
2021/03/30 01:26:48;;;;;;;0.93;0.93;;;;;;;12.77;40.40;101876.06;4990895;28;20217;-71
2021/03/30 01:29:39;;;;;;;6.80;0.70;;;;;;;12.75;39.80;101870.88;4991481;28;20181;-72
2021/03/30 01:32:11;;;;;;;1.33;1.10;;;;;;;12.88;39.95;101866.63;5056858;28;20190;-72
2021/03/30 01:34:40;;;;;;;1.33;1.23;;;;;;;12.63;41.18;101866.91;5073154;28;20234;-71
2021/03/30 01:37:07;;;;;;;0.80;0.80;;;;;;;12.60;40.35;101862.81;5072778;28;20182;-71
2021/03/30 01:39:35;;;;;;;6.80;0.93;;;;;;;12.54;41.12;101871.38;5073353;28;20210;-71
2021/03/30 01:42:01;;;;;;;1.13;1.07;;;;;;;12.54;40.67;101871.38;5073114;28;20186;-72
2021/03/30 01:44:26;;;;;;;1.43;1.33;;;;;;;12.58;40.89;101866.94;5072985;28;20199;-72
2021/03/30 01:46:55;;;;;;;2.73;2.00;;;;;;;12.45;41.26;101873.94;5071647;28;20217;-72
2021/03/30 01:49:23;;;;;;;1.80;1.30;;;;;;;12.31;41.69;101862.81;5072999;28;20312;-72
2021/03/30 01:51:50;;;;;;;6.63;1.57;;;;;;;12.31;42.16;101857.34;5073122;28;20181;-72
2021/03/30 01:54:18;;;;;;;1.67;1.57;;;;;;;12.39;41.55;101864.94;5072993;28;20186;-72
2021/03/30 01:56:45;;;;;;;1.73;1.47;;;;;;;12.36;41.52;101860.03;5072379;28;20281;-71
2021/03/30 01:59:14;;;;;;;0.60;0.60;;;;;;;12.38;41.40;101859.72;5073156;28;20181;-72
2021/03/30 02:01:41;;;;;;;1.63;1.40;;;;;;;12.38;40.77;101852.31;5072672;28;20626;-71
2021/03/30 02:04:07;;;;;;;1.77;1.67;;;;;;;12.28;42.54;101854.34;5072658;28;20182;-72
2021/03/30 02:06:34;;;;;;;2.43;2.20;;;;;;;12.25;41.84;101860.41;5072698;28;20194;-71
2021/03/30 02:09:08;;;;;;;4.10;1.87;;;;;;;12.18;41.89;101856.09;5072968;28;20175;-72
2021/03/30 02:14:33;;;;;;;4.33;1.10;;;;;;;11.94;42.68;101846.97;5049893;28;20208;-72
2021/03/30 02:17:03;;;;;;;0.40;0.40;;;;;;;11.93;43.10;101850.00;5072584;28;20173;-72
2021/03/30 02:19:43;;;;;;;1.40;1.03;;;;;;;12.17;41.29;101853.63;5071983;28;20185;-71
2021/03/30 02:22:21;;;;;;;1.67;1.33;;;;;;;12.15;42.29;101861.28;5073734;28;20177;-71
2021/03/30 02:24:47;;;;;;;2.30;0.90;;;;;;;12.30;41.46;101857.63;5073107;28;20573;-72
2021/03/30 02:27:14;;;;;;;1.67;1.53;;;;;;;12.41;40.98;101861.88;5073004;28;20255;-72
2021/03/30 02:29:42;;;;;;;2.40;1.40;;;;;;;12.23;42.08;101868.09;5073391;28;20235;-72
2021/03/30 02:32:12;;;;;;;1.27;1.17;;;;;;;12.22;41.33;101861.78;5073263;28;20767;-72
2021/03/30 02:34:38;;;;;;;4.77;2.17;;;;;;;12.19;42.00;101865.13;5071969;28;20175;-72
2021/03/30 02:37:05;;;;;;;2.53;2.13;;;;;;;12.28;41.49;101860.63;5073498;28;20533;-71
2021/03/30 02:39:31;;;;;;;1.63;1.10;;;;;;;12.30;41.35;101858.44;5073521;28;20167;-72
2021/03/30 02:41:58;;;;;;;3.93;2.00;;;;;;;12.29;41.30;101856.78;5073588;28;20299;-72
2021/03/30 02:44:25;;;;;;;3.17;1.67;;;;;;;12.39;40.72;101856.69;5073078;28;20235;-72
2021/03/30 02:46:54;;;;;;;2.50;1.07;;;;;;;12.33;41.02;101844.16;5073288;28;20674;-72
2021/03/30 02:49:22;;;;;;;1.43;1.33;;;;;;;12.35;41.12;101849.34;5073631;28;20531;-72
2021/03/30 02:51:50;;;;;;;3.00;2.27;;;;;;;12.30;41.81;101852.16;5073591;28;20182;-72
2021/03/30 02:54:17;;;;;;;2.67;1.57;;;;;;;12.13;42.40;101858.84;5073719;28;20285;-71
2021/03/30 02:56:44;;;;;;;1.77;1.37;;;;;;;12.37;40.95;101847.13;5073667;28;20189;-72
2021/03/30 02:59:10;;;;;;;0.83;0.80;;;;;;;12.37;41.25;101842.47;5073831;28;20182;-72
2021/03/30 03:01:38;;;;;;;1.67;1.57;;;;;;;12.46;41.76;101851.72;5073686;28;20219;-71
2021/03/30 03:04:04;;;;;;;2.33;2.03;;;;;;;12.38;42.25;101857.00;5074014;28;20179;-72
2021/03/30 03:06:31;;;;;;;1.90;1.80;;;;;;;12.33;42.48;101857.06;5073605;28;20385;-72
2021/03/30 03:08:56;;;;;;;1.33;1.17;;;;;;;12.20;43.46;101856.59;5072521;28;20179;-72
2021/03/30 03:11:22;;;;;;;3.43;1.87;;;;;;;12.02;43.42;101861.97;5073586;28;20171;-72
2021/03/30 03:13:50;;;;;;;3.20;1.87;;;;;;;11.96;44.07;101861.19;5073243;28;20253;-72
2021/03/30 03:16:19;;;;;;;1.87;1.37;;;;;;;11.91;43.19;101855.75;5073644;28;20179;-72
2021/03/30 03:18:45;;;;;;;2.13;1.93;;;;;;;11.91;42.84;101862.06;5073985;28;20228;-72
2021/03/30 03:21:11;;;;;;;1.50;1.40;;;;;;;11.98;43.31;101866.38;5073600;28;20626;-72
2021/03/30 03:23:38;;;;;;;1.73;1.63;;;;;;;12.01;43.18;101857.59;5073847;28;20699;-72
2021/03/30 03:26:13;;;;;;;2.50;2.30;;;;;;;12.02;43.55;101859.25;5073074;28;20182;-72
2021/03/30 03:28:43;;;;;;;2.00;1.80;;;;;;;11.91;43.03;101859.31;5073786;28;20178;-72
2021/03/30 03:31:13;;;;;;;2.13;1.90;;;;;;;12.03;43.16;101858.13;5072748;28;20269;-72
2021/03/30 03:33:39;;;;;;;1.73;1.63;;;;;;;11.91;43.71;101859.31;5074124;28;20171;-72
2021/03/30 03:36:08;;;;;;;2.27;1.80;;;;;;;11.96;43.02;101857.63;5073837;28;20174;-72
2021/03/30 03:38:34;;;;;;;1.63;1.53;;;;;;;11.93;43.57;101858.22;5074752;28;20170;-71
2021/03/30 03:41:00;;;;;;;8.83;2.37;;;;;;;11.74;44.04;101858.88;5074496;28;20219;-72
2021/03/30 03:43:25;;;;;;;3.00;2.70;;;;;;;11.55;45.12;101853.22;5072952;28;20179;-72
2021/03/30 03:45:51;;;;;;;2.63;2.00;;;;;;;11.72;43.95;101858.34;5074647;28;20676;-72
2021/03/30 03:48:16;;;;;;;2.97;2.77;;;;;;;11.79;44.30;101861.59;5075103;28;20202;-71
2021/03/30 03:50:43;;;;;;;2.90;2.70;;;;;;;11.65;44.49;101859.75;5078152;28;20634;-71
2021/03/30 03:53:10;;;;;;;2.73;1.77;;;;;;;11.64;45.26;101858.91;5082455;28;20178;-71
2021/03/30 03:55:38;;;;;;;0.80;0.70;;;;;;;11.56;45.07;101862.25;5073570;28;20181;-71
2021/03/30 03:58:07;;;;;;;1.90;1.80;;;;;;;11.57;44.33;101863.88;5071183;28;20185;-71
2021/03/30 04:00:33;;;;;;;2.73;2.53;;;;;;;11.72;43.97;101863.81;5071114;28;20860;-71
2021/03/30 04:03:08;;;;;;;6.90;2.27;;;;;;;11.89;44.20;101858.78;5071153;28;20210;-72
2021/03/30 04:05:42;;;;;;;1.80;1.70;;;;;;;11.82;45.06;101874.69;5069998;28;20178;-71
2021/03/30 04:08:12;;;;;;;5.70;2.23;;;;;;;11.74;44.42;101869.81;5070585;28;20723;-72
2021/03/30 04:10:41;;;;;;;6.33;1.57;;;;;;;11.79;44.53;101875.28;5070428;28;20202;-72
2021/03/30 04:13:07;;;;;;;2.10;1.90;;;;;;;11.99;43.66;101878.97;5070998;28;20175;-72
2021/03/30 04:15:32;;;;;;;1.60;1.50;;;;;;;11.94;43.63;101881.75;5071087;28;20507;-72
2021/03/30 04:17:57;;;;;;;3.97;2.80;;;;;;;11.98;43.36;101878.16;5070905;28;20183;-71
2021/03/30 04:20:25;;;;;;;2.37;2.17;;;;;;;11.89;44.95;101886.16;5070838;28;20178;-71
2021/03/30 04:22:57;;;;;;;3.83;2.60;;;;;;;11.88;44.25;101879.06;5071011;28;20703;-72
2021/03/30 04:25:23;;;;;;;42.77;3.30;;;;;;;11.96;43.85;101885.84;5071036;28;20185;-72
2021/03/30 04:27:49;;;;;;;2.57;2.13;;;;;;;11.99;44.14;101882.53;5070006;28;20202;-71
2021/03/30 04:30:14;;;;;;;2.10;2.00;;;;;;;11.77;45.40;101884.84;5070781;28;20186;-71
2021/03/30 04:32:40;;;;;;;2.60;2.40;;;;;;;11.74;44.94;101880.78;5070955;28;20181;-72
2021/03/30 04:35:06;;;;;;;3.07;2.37;;;;;;;11.91;44.83;101886.69;5069423;28;20178;-71
2021/03/30 04:37:31;;;;;;;2.73;1.50;;;;;;;11.93;44.50;101872.72;5070401;28;20684;-71
2021/03/30 04:39:57;;;;;;;2.97;2.33;;;;;;;11.95;44.19;101880.66;5071031;28;20210;-71
2021/03/30 04:42:22;;;;;;;2.47;2.23;;;;;;;11.81;44.73;101875.81;5071041;28;20240;-71
2021/03/30 04:44:48;;;;;;;4.37;2.63;;;;;;;11.84;44.83;101883.44;5070514;28;20190;-72
2021/03/30 04:47:13;;;;;;;3.03;2.73;;;;;;;11.90;44.05;101890.53;5070397;28;20206;-71
2021/03/30 04:49:38;;;;;;;3.70;3.40;;;;;;;11.99;44.50;101888.00;5070683;28;20179;-71
2021/03/30 04:52:04;;;;;;;2.37;1.97;;;;;;;11.91;44.62;101903.13;5071116;28;20204;-71
2021/03/30 04:54:29;;;;;;;3.20;2.90;;;;;;;11.87;44.77;101899.34;5070627;28;20217;-71
2021/03/30 04:56:55;;;;;;;2.67;2.47;;;;;;;11.82;44.77;101899.34;5070383;28;20571;-71
2021/03/30 04:59:21;;;;;;;2.77;2.53;;;;;;;11.71;45.04;101896.91;5070896;28;20649;-72
2021/03/30 05:01:47;;;;;;;3.80;2.73;;;;;;;11.67;44.49;101902.16;5071062;28;20207;-72
2021/03/30 05:04:12;;;;;;;3.33;2.87;;;;;;;11.56;45.54;101908.78;5070969;28;20277;-72
2021/03/30 05:06:38;;;;;;;2.77;2.40;;;;;;;11.50;45.72;101913.47;5070525;28;20696;-72
2021/03/30 05:09:03;;;;;;;2.63;2.43;;;;;;;11.37;46.54;101914.06;5069369;28;20174;-71
2021/03/30 05:11:29;;;;;;;3.13;2.33;;;;;;;11.28;45.77;101916.59;5070928;28;20167;-71
2021/03/30 05:13:54;;;;;;;2.77;2.50;;;;;;;11.33;46.26;101915.75;5070861;28;20634;-72
2021/03/30 05:16:19;;;;;;;3.33;2.20;;;;;;;11.31;45.92;101926.16;5070156;28;20178;-72
2021/03/30 05:18:45;;;;;;;2.73;2.53;;;;;;;11.36;46.70;101922.56;5070722;28;20206;-72
2021/03/30 05:21:11;;;;;;;2.37;2.03;;;;;;;11.44;46.03;101927.47;5068977;28;20182;-72
2021/03/30 05:23:36;;;;;;;2.30;2.10;;;;;;;11.43;46.35;101926.66;5073787;28;20228;-72
2021/03/30 05:26:02;;;;;;;3.50;2.90;;;;;;;11.47;46.64;101929.66;5073959;28;20228;-72
2021/03/30 05:28:27;;;;;;;2.90;2.70;;;;;;;11.43;46.54;101932.13;5073483;28;20202;-71
2021/03/30 05:30:52;;;;;;;6.10;2.10;;;;;;;11.33;47.94;101927.50;5073923;28;20180;-71
2021/03/30 05:33:18;;;;;;;2.83;2.53;;;;;;;11.23;47.44;101930.28;5073777;28;20170;-72
2021/03/30 05:35:44;;;;;;;4.13;2.73;;;;;;;11.42;46.40;101935.13;5072667;28;20266;-72
2021/03/30 05:38:09;;;;;;;2.40;2.20;;;;;;;11.44;47.37;101941.16;5073398;28;20171;-72
2021/03/30 05:40:35;;;;;;;3.57;2.67;;;;;;;11.51;47.09;101941.66;5073908;28;20222;-72
2021/03/30 05:43:00;;;;;;;5.53;3.03;;;;;;;11.49;47.75;101938.38;5073702;28;20646;-71
2021/03/30 05:45:26;;;;;;;2.57;2.37;;;;;;;11.41;48.21;101941.69;5073638;28;20226;-71
2021/03/30 05:47:53;;;;;;;2.80;2.57;;;;;;;11.37;48.27;101943.34;5073156;28;20221;-72
2021/03/30 05:50:22;;;;;;;4.27;2.60;;;;;;;11.19;49.60;101942.88;5073778;28;20171;-72
2021/03/30 05:53:05;;;;;;;2.40;2.20;;;;;;;11.15;50.50;101941.00;5073570;28;20802;-72
2021/03/30 05:55:32;;;;;;;5.20;3.70;;;;;;;11.00;50.66;101953.59;5073549;28;20159;-72
2021/03/30 05:58:00;;;;;;;3.37;3.07;;;;;;;11.01;51.11;101946.22;5073315;28;20236;-72
2021/03/30 06:00:33;;;;;;;3.33;3.03;;;;;;;11.05;50.60;101954.69;5072148;28;20182;-72
2021/03/30 06:03:04;;;;;;;3.07;2.77;;;;;;;11.03;52.13;101954.97;5072843;28;20532;-72
2021/03/30 06:05:30;;;;;;;2.83;2.63;;;;;;;10.74;52.81;101952.00;5072759;28;20175;-72
2021/03/30 06:08:00;;;;;;;2.77;2.53;;;;;;;10.57;53.15;101951.47;5072422;28;20288;-72
2021/03/30 06:10:27;;;;;;;3.97;3.57;;;;;;;10.57;53.18;101960.50;5072957;28;20179;-71
2021/03/30 06:12:54;;;;;;;3.03;2.10;;;;;;;10.57;53.14;101965.97;5072447;28;20170;-72
2021/03/30 06:15:20;;;;;;;4.67;3.80;;;;;;;11.06;50.86;101970.81;5072589;28;20188;-72
2021/03/30 06:17:50;;;;;;;8.13;3.07;;;;;;;11.32;49.75;101964.19;5072204;28;20178;-72
2021/03/30 06:20:35;;;;;;;4.83;4.33;;;;;;;11.53;49.75;101972.31;5072714;28;20179;-72
2021/03/30 06:23:05;;;;;;;3.47;2.30;;;;;;;11.53;49.92;101966.81;5072356;28;20185;-72
2021/03/30 06:25:40;;;;;;;4.10;3.70;;;;;;;11.67;49.40;101976.06;5072555;28;20213;-72
2021/03/30 06:28:21;;;;;;;4.23;3.53;;;;;;;11.78;48.88;101969.44;5071336;28;20205;-72
2021/03/30 06:30:55;;;;;;;3.73;3.37;;;;;;;11.89;49.06;101978.47;5070981;28;20190;-72
2021/03/30 06:33:21;;;;;;;3.43;3.00;;;;;;;11.95;48.88;101982.81;5071816;28;20213;-72
2021/03/30 06:35:46;;;;;;;2.53;2.33;;;;;;;12.09;48.05;101983.00;5072210;28;20665;-72
2021/03/30 06:38:12;;;;;;;5.83;3.10;;;;;;;12.13;48.86;101976.66;5070302;28;20186;-72
2021/03/30 06:40:39;;;;;;;3.60;3.27;;;;;;;12.21;47.90;101975.25;5072051;28;20209;-73
2021/03/30 06:46:06;;;;;;;3.97;3.57;;;;;;;12.31;47.60;101975.19;5071670;28;20717;-72
2021/03/30 06:48:32;;;;;;;9.03;3.90;;;;;;;12.45;47.24;101983.59;5071649;28;20206;-71
2021/03/30 06:51:15;;;;;;;1.37;1.27;;;;;;;12.52;46.52;101986.81;5071833;28;20174;-72
2021/03/30 06:53:40;;;;;;;4.23;3.23;;;;;;;12.65;47.29;101988.88;5072001;28;20186;-72
2021/03/30 06:56:06;;;;;;;3.43;2.20;;;;;;;12.73;46.38;101996.50;5071789;28;20167;-71
2021/03/30 06:58:58;;;;;;;3.40;3.10;;;;;;;12.77;47.47;101988.50;5071815;28;20202;-72
2021/03/30 07:01:26;;;;;;;4.10;2.27;;;;;;;12.80;47.25;101987.94;5071643;28;20208;-72
2021/03/30 07:03:54;;;;;;;2.60;2.40;;;;;;;12.87;46.58;101993.06;5071628;28;20572;-71
2021/03/30 07:06:19;;;;;;;2.77;2.57;;;;;;;12.90;46.26;101996.06;5071033;28;20419;-71
2021/03/30 07:08:45;;;;;;;4.57;3.30;;;;;;;12.93;46.66;101995.50;5071782;28;20641;-73
2021/03/30 07:11:11;;;;;;;4.23;3.50;;;;;;;12.97;46.57;101991.06;5071327;28;20202;-71
2021/03/30 07:13:36;;;;;;;4.07;3.67;;;;;;;13.08;46.87;101992.59;5071311;28;20203;-71
2021/03/30 07:16:07;;;;;;;4.33;3.77;;;;;;;13.18;46.81;101990.88;5070720;28;20193;-72
2021/03/30 07:18:41;;;;;;;3.50;3.20;;;;;;;13.23;47.27;102001.81;5071382;28;20198;-73
2021/03/30 07:21:27;;;;;;;5.40;3.00;;;;;;;13.33;47.78;101990.72;5071173;28;20169;-73
2021/03/30 07:23:55;;;;;;;4.70;3.60;;;;;;;13.36;47.58;101996.44;5071245;28;20308;-72
2021/03/30 07:26:24;;;;;;;3.23;2.93;;;;;;;13.38;48.35;101999.72;5070126;28;20593;-73
2021/03/30 07:29:00;;;;;;;2.33;2.23;;;;;;;13.41;46.94;101998.31;5071036;28;20742;-73
2021/03/30 07:31:31;;;;;;;4.90;2.30;;;;;;;13.47;46.46;101999.09;5071220;28;20215;-72
2021/03/30 07:34:03;;;;;;;4.40;3.37;;;;;;;13.51;47.91;102003.69;5071035;28;20863;-73
2021/03/30 07:36:34;;;;;;;6.57;1.70;;;;;;;13.60;46.36;102001.13;5070912;28;20232;-73
2021/03/30 07:39:01;;;;;;;5.13;4.27;;;;;;;13.66;46.65;102000.75;5069593;28;20619;-73
2021/03/30 07:41:27;;;;;;;6.67;3.67;;;;;;;13.75;46.85;102005.59;5070811;28;20194;-72
2021/03/30 07:43:58;;;;;;;6.73;3.77;;;;;;;13.77;46.12;102003.38;5070953;28;20178;-73
2021/03/30 07:46:24;;;;;;;7.90;2.63;;;;;;;13.80;46.15;101997.28;5069938;28;20669;-73
2021/03/30 07:48:50;;;;;;;4.50;3.63;;;;;;;13.85;46.83;102006.25;5070842;28;20189;-73
2021/03/30 07:51:24;;;;;;;4.90;3.87;;;;;;;13.95;46.71;101992.41;5070837;28;20183;-72
2021/03/30 07:53:55;;;;;;;4.73;3.33;;;;;;;14.02;46.47;101989.28;5070805;28;20321;-73
2021/03/30 07:56:20;;;;;;;3.60;3.27;;;;;;;14.11;47.21;101998.50;5070756;28;20174;-73
2021/03/30 07:58:45;;;;;;;3.97;3.63;;;;;;;14.18;46.67;101996.22;5070571;28;20178;-71
2021/03/30 08:01:13;;;;;;;5.33;4.23;;;;;;;14.23;45.88;101998.88;5070655;28;20174;-72
2021/03/30 08:03:40;;;;;;;4.73;3.37;;;;;;;14.28;45.21;102001.53;5070752;28;20279;-72
2021/03/30 08:06:08;;;;;;;4.20;2.53;;;;;;;14.29;45.62;102013.34;5070916;28;20202;-72
2021/03/30 08:08:56;;;;;;;6.90;5.37;;;;;;;14.27;45.68;102008.16;5071253;28;20203;-72
2021/03/30 08:11:37;;;;;;;3.70;3.23;;;;;;;14.38;44.36;101997.81;5070953;28;20479;-72
2021/03/30 08:14:03;;;;;;;3.73;3.40;;;;;;;14.43;45.72;102005.97;5067820;28;20186;-72
2021/03/30 08:16:29;;;;;;;5.27;4.27;;;;;;;14.50;46.21;102011.97;5067194;28;20179;-72
2021/03/30 08:18:58;;;;;;;3.37;3.03;;;;;;;14.64;45.40;102016.69;5070983;28;20631;-71
2021/03/30 08:21:24;;;;;;;5.27;4.17;;;;;;;14.66;44.51;102012.53;5071458;28;20181;-71
2021/03/30 08:23:52;;;;;;;2.93;2.60;;;;;;;14.66;44.26;102018.03;5070973;28;20198;-72
2021/03/30 08:26:17;;;;;;;8.17;4.37;;;;;;;14.78;44.45;102021.13;5069326;28;20192;-71
2021/03/30 08:28:49;;;;;;;6.03;4.07;;;;;;;14.83;44.30;102012.78;5070010;28;20186;-72
2021/03/30 08:31:36;;;;;;;3.00;2.77;;;;;;;14.91;44.91;102010.47;5069863;28;20206;-72
2021/03/30 08:34:05;;;;;;;6.77;3.63;;;;;;;14.91;43.33;102013.22;5060151;28;20225;-72
2021/03/30 08:36:34;;;;;;;5.43;4.40;;;;;;;14.98;43.67;102013.63;5069604;28;20174;-72
2021/03/30 08:39:09;;;;;;;4.53;3.87;;;;;;;15.13;43.96;102016.09;5071343;28;20646;-72
2021/03/30 08:41:43;;;;;;;5.97;3.70;;;;;;;15.23;42.92;102012.38;5071378;28;20202;-72
2021/03/30 08:44:16;;;;;;;4.93;3.53;;;;;;;15.31;43.85;102015.22;5071315;28;20178;-71
2021/03/30 08:47:00;;;;;;;4.40;4.00;;;;;;;15.32;41.82;102019.59;5071197;28;20201;-71
2021/03/30 08:49:43;;;;;;;4.27;3.90;;;;;;;15.40;42.95;102023.59;5072123;28;20492;-71
2021/03/30 08:52:13;;;;;;;3.07;2.77;;;;;;;15.38;41.74;102021.16;5071794;28;20182;-72
2021/03/30 08:54:49;;;;;;;4.97;3.30;;;;;;;15.39;42.99;102028.28;5072058;28;20429;-71
2021/03/30 08:57:21;;;;;;;4.00;2.20;;;;;;;15.43;42.89;102029.28;5074050;28;20154;-72
2021/03/30 08:59:46;;;;;;;4.53;3.77;;;;;;;15.46;42.16;102031.44;5074379;28;20177;-70
2021/03/30 09:02:12;;;;;;;1.77;1.67;;;;;;;15.50;42.37;102036.34;5075533;28;20178;-73
2021/03/30 09:04:39;;;;;;;6.60;3.77;;;;;;;15.59;42.63;102037.25;5075718;28;20274;-72
2021/03/30 09:07:06;;;;;;;4.87;3.77;;;;;;;15.71;42.68;102043.94;5075649;28;20204;-72
2021/03/30 09:09:36;;;;;;;2.77;2.33;;;;;;;15.71;41.90;102037.59;5075685;28;20166;-72
2021/03/30 09:12:17;;;;;;;6.13;4.03;;;;;;;15.76;41.46;102037.47;5075929;28;20603;-71
2021/03/30 09:14:46;;;;;;;3.30;3.03;;;;;;;15.82;41.95;102039.03;5076110;28;20166;-72
2021/03/30 09:17:15;;;;;;;2.67;2.17;;;;;;;15.97;42.03;102027.66;5075643;28;20182;-72
2021/03/30 09:19:49;;;;;;;6.33;2.57;;;;;;;15.99;42.17;102035.63;5076437;28;20574;-72
2021/03/30 09:22:27;;;;;;;5.17;3.90;;;;;;;16.04;43.24;102030.00;5074937;28;20194;-72
2021/03/30 09:25:11;;;;;;;7.33;3.73;;;;;;;16.17;43.31;102039.38;5076167;28;20205;-72
2021/03/30 09:27:38;;;;;;;4.17;3.83;;;;;;;16.18;42.53;102032.72;5074915;28;20206;-72
2021/03/30 09:30:07;;;;;;;5.10;4.10;;;;;;;16.31;43.45;102038.22;5076345;28;20607;-72
2021/03/30 09:32:34;;;;;;;6.80;4.00;;;;;;;16.44;41.99;102042.06;5075162;28;20548;-71
2021/03/30 09:35:03;;;;;;;4.53;4.13;;;;;;;16.41;42.75;102030.84;5076401;28;20167;-72
2021/03/30 09:37:34;;;;;;;4.13;3.73;;;;;;;16.50;41.24;102032.53;5075660;28;20170;-72
2021/03/30 09:40:08;;;;;;;6.30;4.10;;;;;;;16.48;41.76;102026.50;5076434;28;20166;-72
2021/03/30 09:42:33;;;;;;;2.73;2.53;;;;;;;16.43;39.63;102037.66;5075193;28;20528;-72
2021/03/30 09:44:59;;;;;;;4.70;3.47;;;;;;;16.57;40.52;102026.56;5076235;28;20189;-73
2021/03/30 09:47:25;;;;;;;5.77;3.70;;;;;;;16.77;40.95;102022.50;5076436;28;20658;-73
2021/03/30 09:49:50;;;;;;;4.57;3.43;;;;;;;16.84;38.33;102022.91;5076351;28;20507;-73
2021/03/30 09:52:16;;;;;;;3.97;3.57;;;;;;;16.85;38.58;102022.59;5076757;28;20561;-73
2021/03/30 09:54:43;;;;;;;9.83;3.67;;;;;;;16.93;38.03;102021.03;5075721;28;20182;-73
2021/03/30 09:57:14;;;;;;;3.97;3.63;;;;;;;16.90;37.55;102018.88;5080524;28;20705;-72
2021/03/30 09:59:46;;;;;;;3.27;2.97;;;;;;;17.05;39.23;102024.00;5079028;28;20582;-73
2021/03/30 10:02:13;;;;;;;27.83;2.70;;;;;;;17.05;38.47;102024.00;5069762;28;20171;-72
2021/03/30 10:04:38;;;;;;;3.83;2.77;;;;;;;17.14;39.68;102016.59;5073250;28;20196;-73
2021/03/30 10:07:15;;;;;;;3.80;3.37;;;;;;;17.34;39.45;102014.38;5072494;28;20206;-71
2021/03/30 10:10:17;;;;;;;3.20;2.73;;;;;;;17.37;38.60;102011.81;5072923;28;20211;-70
2021/03/30 10:12:57;;;;;;;4.67;3.47;;;;;;;17.42;38.07;102008.91;5030405;28;20221;-72
2021/03/30 10:15:31;;;;;;;4.27;3.87;;;;;;;17.49;41.09;102011.19;5068411;28;20252;-71
2021/03/30 10:17:57;;;;;;;5.00;3.87;;;;;;;17.50;39.47;102016.44;5072460;28;20812;-72
2021/03/30 10:20:23;;;;;;;4.77;4.10;;;;;;;17.53;39.05;102007.50;5072803;28;20265;-72
2021/03/30 10:22:49;;;;;;;2.30;2.17;;;;;;;17.56;38.22;102006.03;5072608;28;20260;-71
2021/03/30 10:25:14;;;;;;;4.67;3.57;;;;;;;17.73;38.46;102016.34;5072779;28;20265;-73
2021/03/30 10:28:06;;;;;;;4.40;3.33;;;;;;;17.83;39.11;102005.81;5070511;28;20834;-71
2021/03/30 10:30:43;;;;;;;3.13;2.43;;;;;;;17.78;37.45;102008.72;5070542;28;20634;-73
2021/03/30 10:33:18;;;;;;;9.73;4.10;;;;;;;17.78;38.54;102003.19;5072387;28;20179;-73
2021/03/30 10:35:44;;;;;;;3.73;2.87;;;;;;;17.98;37.66;102000.97;5069870;28;20174;-73
2021/03/30 10:38:10;;;;;;;4.73;3.90;;;;;;;18.04;38.24;102003.22;5069357;28;20193;-73
2021/03/30 10:40:38;;;;;;;4.33;3.57;;;;;;;18.06;37.65;102000.94;5072457;28;20527;-73
2021/03/30 10:46:21;;;;;;;4.43;2.80;;;;;;;18.12;36.97;102005.19;5054285;28;20248;-72
2021/03/30 10:49:04;;;;;;;3.93;3.60;;;;;;;18.33;37.38;102008.13;5072023;28;20244;-72
2021/03/30 10:51:32;;;;;;;5.23;4.17;;;;;;;18.44;36.84;101992.81;5072535;28;20165;-73
2021/03/30 10:54:02;;;;;;;3.47;2.93;;;;;;;18.52;36.14;101999.50;5071684;28;20166;-72
2021/03/30 10:56:29;;;;;;;4.13;3.73;;;;;;;18.63;37.05;101995.28;5065801;28;20653;-72
2021/03/30 10:58:54;;;;;;;5.10;3.93;;;;;;;18.70;36.08;101992.03;5069092;28;20245;-72
2021/03/30 11:01:20;;;;;;;3.90;3.50;;;;;;;18.49;36.52;101991.84;5070510;28;20174;-72
2021/03/30 11:03:45;;;;;;;3.20;2.97;;;;;;;18.63;37.30;101988.88;5067641;28;20209;-71
2021/03/30 11:06:10;;;;;;;3.03;2.03;;;;;;;18.75;36.97;101991.03;5071159;28;20217;-74
2021/03/30 11:08:36;;;;;;;4.53;3.97;;;;;;;18.85;36.82;101980.41;5071610;28;20258;-73
2021/03/30 11:11:02;;;;;;;3.00;2.70;;;;;;;19.00;35.39;101982.66;5051628;28;20207;-73
2021/03/30 11:13:28;;;;;;;2.77;2.57;;;;;;;18.89;35.84;101978.59;5051839;28;20171;-73
2021/03/30 11:15:53;;;;;;;6.80;2.63;;;;;;;18.84;36.03;101980.75;5051866;28;20182;-71
2021/03/30 11:18:18;;;;;;;3.97;2.77;;;;;;;18.88;36.27;101982.53;5051296;28;20175;-73
2021/03/30 11:20:44;;;;;;;2.70;2.07;;;;;;;18.88;35.95;101965.09;5051344;28;20175;-73
2021/03/30 11:23:09;;;;;;;3.43;2.93;;;;;;;18.97;35.22;101977.78;5070900;28;20179;-72
2021/03/30 11:25:39;;;;;;;3.23;2.80;;;;;;;19.09;35.85;101971.53;5071515;28;20178;-72
2021/03/30 11:28:08;;;;;;;3.23;2.93;;;;;;;19.26;35.81;101971.47;5070272;28;20198;-70
2021/03/30 11:30:41;;;;;;;3.20;2.90;;;;;;;19.43;35.37;101972.53;5071062;28;20182;-70
2021/03/30 11:38:13;;;;;;;4.27;3.20;;;;;;;19.49;34.69;101955.38;5070739;28;20178;-71
2021/03/30 11:40:39;;;;;;;3.30;3.00;;;;;;;19.61;34.90;101963.81;5071084;28;20554;-70
2021/03/30 11:43:05;;;;;;;4.17;3.53;;;;;;;19.64;35.43;101958.72;5070919;28;20185;-71
2021/03/30 11:45:31;;;;;;;4.47;3.80;;;;;;;19.77;34.31;101949.34;5069391;28;20190;-71
2021/03/30 11:47:56;;;;;;;2.90;2.67;;;;;;;19.77;33.76;101952.94;5070205;28;20623;-70